D70 weather

Honeoye Falls Airport
Honeoye Falls, New York, United States

Public forecast

Using degrees Fahrenheit for public forecast. Weather courtesy of forecast.io.

METAR (pilot weather report)

Closest report is Greater Rochester International Airport, 10.8 nm (20.0 km) NNW. Retrieved 2019/05/22 13:54 UTC (1 hour ago):

KROC 221354Z 13009KT 10SM FEW095 SCT180 BKN250 17/04 A3028 RMK AO2 SLP258 T01670044

TAF (pilot weather forecast)

Closest forecast is Greater Rochester International Airport, 10.8 nm (20.0 km) NNW. Retrieved 2019/05/22 12:22 UTC (3 hours ago):

TAF KROC 221120Z 2212/2312 25004KT P6SM FEW250 FM221700 11007KT P6SM BKN150 FM222000 11009KT P6SM SCT100 FM222300 12009KT P6SM BKN090 FM230200 16008KT P6SM VCSH BKN050